createdAt,value
2018-09-14T00:50:54.682Z,95487.13
2018-09-14T00:56:03.002Z,95483.19
2018-09-14T02:33:09.535Z,114492.60
2018-09-14T02:38:13.646Z,114492.60
2018-09-14T02:43:17.303Z,114492.60
2018-09-14T03:45:59.135Z,95526.20
2018-09-14T03:51:02.476Z,95525.67
2018-09-14T03:56:05.830Z,95524.96
2018-09-14T04:35:39.643Z,95535.06
2018-09-14T04:40:44.226Z,95528.16
2018-09-14T04:46:02.078Z,95524.90
2018-09-14T04:51:05.414Z,95537.85
2018-09-14T04:56:09.524Z,95542.08
2018-09-14T05:01:12.878Z,95546.80
2018-09-14T05:06:31.099Z,95550.82
2018-09-14T05:11:34.439Z,95557.27
2018-09-14T05:16:50.258Z,95560.43
2018-09-14T05:21:53.586Z,95561.59
2018-09-14T05:26:56.921Z,95558.37
2018-09-14T05:32:00.254Z,95573.96
2018-09-14T05:37:03.582Z,95566.72
2018-09-14T05:42:07.699Z,95575.52
2018-09-14T05:47:11.022Z,95576.62
2018-09-14T05:52:15.124Z,95580.67
2018-09-14T05:57:18.455Z,95583.54
2018-09-14T06:02:22.567Z,95586.30
2018-09-14T06:07:25.895Z,95587.30
2018-09-14T06:12:29.218Z,95598.69
2018-09-14T06:17:33.314Z,95602.66
2018-09-14T06:22:36.687Z,95599.38
2018-09-14T06:27:39.982Z,95604.57
2018-09-14T07:01:29.383Z,95626.77
2018-09-14T07:06:32.763Z,95623.67
2018-09-14T07:11:36.142Z,95617.25
2018-09-14T08:02:42.284Z,95672.40
2018-09-14T08:07:45.607Z,95670.97
2018-09-14T08:12:48.941Z,95673.53
2018-09-14T09:03:57.380Z,95688.34
2018-09-14T09:09:01.494Z,95684.59
2018-09-14T09:14:04.775Z,95687.00
2018-09-14T10:05:09.543Z,95691.34
2018-09-14T10:10:12.862Z,95685.36
2018-09-14T11:01:17.634Z,95678.04
2018-09-14T11:06:22.014Z,95675.59
2018-09-14T11:11:25.338Z,95672.62
2018-09-14T12:02:29.016Z,95631.20
2018-09-14T12:07:32.347Z,95626.43
2018-09-14T12:12:35.674Z,95624.13
2018-09-14T13:03:40.659Z,95606.02
2018-09-14T13:08:44.750Z,95609.14
2018-09-14T13:13:48.091Z,95600.08
2018-09-14T14:04:53.906Z,95567.98
2018-09-14T14:09:57.238Z,95565.20
2018-09-14T14:15:00.560Z,95559.80
2018-09-14T14:48:49.558Z,95554.56
2018-09-14T14:53:52.878Z,95548.26
2018-09-14T14:58:56.203Z,95548.26
2018-09-14T15:03:59.534Z,95544.22
2018-09-14T15:09:03.630Z,95544.84
2018-09-14T15:14:06.964Z,95543.80
2018-09-14T15:19:10.302Z,95540.30
2018-09-14T15:24:13.647Z,95534.81
2018-09-14T15:29:16.970Z,95528.38
2018-09-14T15:34:20.302Z,95531.39
2018-09-14T15:39:23.623Z,95528.23
2018-09-14T15:44:26.956Z,95525.98
2018-09-14T15:49:31.063Z,95528.89
2018-09-14T15:54:34.394Z,95527.34
2018-09-14T15:59:38.502Z,95532.73
2018-09-14T16:04:41.846Z,95527.70
2018-09-14T16:09:45.935Z,95524.85
2018-09-14T16:14:49.263Z,95521.70
2018-09-14T16:19:52.596Z,95522.61
2018-09-14T16:25:02.014Z,95528.27
2018-09-14T16:30:05.344Z,95520.26
2018-09-14T16:35:08.831Z,95525.43
2018-09-14T16:40:12.194Z,95528.38
2018-09-14T16:45:16.291Z,95534.31
2018-09-14T16:50:19.645Z,95540.84
2018-09-14T16:55:23.726Z,95549.18
2018-09-14T17:00:27.070Z,95547.94
2018-09-14T17:05:30.401Z,95553.58
2018-09-14T17:10:34.499Z,95548.30
2018-09-14T17:15:37.827Z,95552.50
2018-09-14T17:20:41.922Z,95545.27
2018-09-14T17:25:45.247Z,95555.11
2018-09-14T17:30:48.575Z,95565.56
2018-09-14T17:35:52.875Z,95564.56
2018-09-14T17:40:56.196Z,95562.88
2018-09-14T17:45:59.523Z,95562.97
2018-09-14T17:51:02.870Z,95558.78
2018-09-14T17:56:06.967Z,95562.67
2018-09-14T18:01:10.305Z,95564.24
2018-09-14T18:06:33.165Z,95555.55
2018-09-14T18:11:37.287Z,95566.67
2018-09-14T18:16:40.632Z,95560.38
2018-09-14T18:21:44.841Z,95573.66
2018-09-14T18:26:48.421Z,95574.85
2018-09-14T18:31:51.762Z,95593.24
2018-09-14T18:36:55.127Z,95591.49
2018-09-14T18:41:58.755Z,95598.26
2018-09-14T18:47:02.371Z,95607.58
2018-09-14T18:52:06.228Z,95612.80
2018-09-14T18:57:09.846Z,95620.44
2018-09-14T19:02:13.837Z,95623.07
2018-09-14T19:07:18.437Z,95625.70
2018-09-14T19:12:22.090Z,95619.05
2018-09-14T19:17:25.710Z,95623.16
2018-09-14T19:22:30.146Z,95619.45
2018-09-14T19:27:34.589Z,95625.66
2018-09-14T19:32:37.937Z,95628.42
2018-09-14T19:37:41.270Z,95623.89
2018-09-14T19:42:44.598Z,95628.91
2018-09-14T19:47:48.707Z,95628.98
2018-09-14T19:52:52.062Z,95612.01
2018-09-14T19:57:55.387Z,95623.42
2018-09-14T20:02:58.718Z,95636.38
2018-09-14T20:08:02.050Z,95637.34
2018-09-14T20:13:05.854Z,95648.15
2018-09-14T20:18:09.640Z,95652.67
2018-09-14T20:23:13.308Z,95642.83
2018-09-14T20:28:16.627Z,95648.80
2018-09-14T20:33:19.967Z,95640.25
2018-09-14T20:38:24.071Z,95643.52
2018-09-14T20:43:27.462Z,95644.00
2018-09-14T20:48:30.734Z,95644.84
2018-09-14T20:53:34.823Z,95644.53
2018-09-14T20:58:38.164Z,95636.54
2018-09-14T21:03:41.496Z,95632.45
2018-09-14T21:08:45.589Z,95624.58
2018-09-14T21:13:48.925Z,95625.06
2018-09-14T21:18:53.038Z,95626.97
2018-09-14T21:23:56.372Z,95627.95
2018-09-14T21:29:00.511Z,95620.56
2018-09-14T21:34:04.583Z,95628.59
2018-09-14T21:39:07.911Z,95624.80
2018-09-14T21:44:11.273Z,95636.52
2018-09-14T21:49:15.370Z,95639.76
2018-09-14T21:54:19.471Z,95638.13
2018-09-14T21:59:22.803Z,95633.14
2018-09-14T22:04:26.135Z,95638.34
2018-09-14T22:09:29.474Z,95635.78
2018-09-14T22:14:33.577Z,95637.58
2018-09-14T22:19:36.903Z,95636.72
2018-09-14T22:24:40.998Z,95641.14
2018-09-14T22:29:44.326Z,95646.58
2018-09-14T22:34:47.655Z,95639.08
2018-09-14T22:39:51.755Z,95647.17
2018-09-14T22:44:55.098Z,95645.25
2018-09-14T22:49:59.203Z,95647.20
2018-09-14T22:55:02.534Z,95652.23
2018-09-14T23:00:05.859Z,95643.97
2018-09-14T23:05:09.952Z,95647.66
2018-09-14T23:10:13.276Z,95654.14
